sensor_id;sensor_type;location;lat;lon;timestamp;temperature;humidity
7934;DHT22;4012;48.896;9.192;2023-07-02T00:01:12;17.90;99.90
7934;DHT22;4012;48.896;9.192;2023-07-02T00:03:38;17.90;99.90
7934;DHT22;4012;48.896;9.192;2023-07-02T00:06:04;17.80;99.90
7934;DHT22;4012;48.896;9.192;2023-07-02T00:08:30;17.90;99.90
7934;DHT22;4012;48.896;9.192;2023-07-02T00:10:55;17.80;99.90
7934;DHT22;4012;48.896;9.192;2023-07-02T00:13:21;17.80;99.90
7934;DHT22;4012;48.896;9.192;2023-07-02T00:15:46;17.80;99.90
7934;DHT22;4012;48.896;9.192;2023-07-02T00:18:12;17.90;99.90
7934;DHT22;4012;48.896;9.192;2023-07-02T00:20:41;17.80;99.90
7934;DHT22;4012;48.896;9.192;2023-07-02T00:23:07;17.80;99.90
7934;DHT22;4012;48.896;9.192;2023-07-02T00:25:36;17.80;99.90
7934;DHT22;4012;48.896;9.192;2023-07-02T00:28:02;17.70;99.90
7934;DHT22;4012;48.896;9.192;2023-07-02T00:30:28;17.70;99.90
7934;DHT22;4012;48.896;9.192;2023-07-02T00:32:53;17.60;99.90
7934;DHT22;4012;48.896;9.192;2023-07-02T00:35:19;17.50;99.90
7934;DHT22;4012;48.896;9.192;2023-07-02T00:37:45;17.50;99.90
7934;DHT22;4012;48.896;9.192;2023-07-02T00:40:11;17.50;99.90
7934;DHT22;4012;48.896;9.192;2023-07-02T00:42:36;17.50;99.90
7934;DHT22;4012;48.896;9.192;2023-07-02T00:45:02;17.50;99.90
7934;DHT22;4012;48.896;9.192;2023-07-02T00:47:32;17.40;99.90
7934;DHT22;4012;48.896;9.192;2023-07-02T00:49:59;17.40;99.90
7934;DHT22;4012;48.896;9.192;2023-07-02T00:52:25;17.40;99.90
7934;DHT22;4012;48.896;9.192;2023-07-02T00:54:51;17.50;99.90
7934;DHT22;4012;48.896;9.192;2023-07-02T00:57:17;17.40;99.90
7934;DHT22;4012;48.896;9.192;2023-07-02T00:59:43;17.40;99.90
7934;DHT22;4012;48.896;9.192;2023-07-02T01:02:08;17.30;99.90
7934;DHT22;4012;48.896;9.192;2023-07-02T01:04:34;17.30;99.90
7934;DHT22;4012;48.896;9.192;2023-07-02T01:07:00;17.30;99.90
7934;DHT22;4012;48.896;9.192;2023-07-02T01:09:26;17.30;99.90
7934;DHT22;4012;48.896;9.192;2023-07-02T01:11:57;17.30;99.90
7934;DHT22;4012;48.896;9.192;2023-07-02T01:14:33;17.20;99.90
7934;DHT22;4012;48.896;9.192;2023-07-02T01:17:00;17.20;99.90
7934;DHT22;4012;48.896;9.192;2023-07-02T01:19:53;17.20;99.90
7934;DHT22;4012;48.896;9.192;2023-07-02T01:22:24;17.30;99.90
7934;DHT22;4012;48.896;9.192;2023-07-02T01:24:53;17.30;99.90
7934;DHT22;4012;48.896;9.192;2023-07-02T01:27:20;17.30;99.90
7934;DHT22;4012;48.896;9.192;2023-07-02T01:29:46;17.30;99.90
7934;DHT22;4012;48.896;9.192;2023-07-02T01:32:15;17.30;99.90
7934;DHT22;4012;48.896;9.192;2023-07-02T01:34:41;17.30;99.90
7934;DHT22;4012;48.896;9.192;2023-07-02T01:37:09;17.20;99.90
7934;DHT22;4012;48.896;9.192;2023-07-02T01:39:34;17.20;99.90
7934;DHT22;4012;48.896;9.192;2023-07-02T01:42:14;17.20;99.90
7934;DHT22;4012;48.896;9.192;2023-07-02T01:44:45;17.20;99.90
7934;DHT22;4012;48.896;9.192;2023-07-02T01:47:11;17.20;99.90
7934;DHT22;4012;48.896;9.192;2023-07-02T01:49:36;17.20;99.90
7934;DHT22;4012;48.896;9.192;2023-07-02T01:52:03;17.20;99.90
7934;DHT22;4012;48.896;9.192;2023-07-02T01:54:33;17.20;99.90
7934;DHT22;4012;48.896;9.192;2023-07-02T01:56:59;17.30;99.90
7934;DHT22;4012;48.896;9.192;2023-07-02T01:59:25;17.20;99.90
7934;DHT22;4012;48.896;9.192;2023-07-02T02:01:51;17.20;99.90
7934;DHT22;4012;48.896;9.192;2023-07-02T02:04:16;17.20;99.90
7934;DHT22;4012;48.896;9.192;2023-07-02T02:06:42;17.20;99.90
7934;DHT22;4012;48.896;9.192;2023-07-02T02:09:09;17.20;99.90
7934;DHT22;4012;48.896;9.192;2023-07-02T02:11:37;17.20;99.90
7934;DHT22;4012;48.896;9.192;2023-07-02T02:14:03;17.20;99.90
7934;DHT22;4012;48.896;9.192;2023-07-02T02:16:29;17.10;99.90
7934;DHT22;4012;48.896;9.192;2023-07-02T02:18:55;17.10;99.90
7934;DHT22;4012;48.896;9.192;2023-07-02T02:21:22;17.10;99.90
7934;DHT22;4012;48.896;9.192;2023-07-02T02:23:48;17.20;99.90
7934;DHT22;4012;48.896;9.192;2023-07-02T02:26:14;17.20;99.90
7934;DHT22;4012;48.896;9.192;2023-07-02T02:28:40;17.30;99.90
7934;DHT22;4012;48.896;9.192;2023-07-02T02:31:05;17.40;99.90
7934;DHT22;4012;48.896;9.192;2023-07-02T02:33:32;17.40;99.90
7934;DHT22;4012;48.896;9.192;2023-07-02T02:35:58;17.40;99.90
7934;DHT22;4012;48.896;9.192;2023-07-02T02:38:23;17.50;99.90
7934;DHT22;4012;48.896;9.192;2023-07-02T02:40:49;17.40;99.90
7934;DHT22;4012;48.896;9.192;2023-07-02T02:43:14;17.40;99.90
7934;DHT22;4012;48.896;9.192;2023-07-02T02:45:42;17.40;99.90
7934;DHT22;4012;48.896;9.192;2023-07-02T02:48:08;17.40;99.90
7934;DHT22;4012;48.896;9.192;2023-07-02T02:50:33;17.50;99.90
7934;DHT22;4012;48.896;9.192;2023-07-02T02:52:59;17.50;99.90
7934;DHT22;4012;48.896;9.192;2023-07-02T02:55:24;17.50;99.90
7934;DHT22;4012;48.896;9.192;2023-07-02T02:57:50;17.50;99.90
7934;DHT22;4012;48.896;9.192;2023-07-02T03:00:16;17.50;99.90
7934;DHT22;4012;48.896;9.192;2023-07-02T03:02:42;17.50;99.90
7934;DHT22;4012;48.896;9.192;2023-07-02T03:05:08;17.50;99.90
7934;DHT22;4012;48.896;9.192;2023-07-02T03:07:34;17.50;99.90
7934;DHT22;4012;48.896;9.192;2023-07-02T03:10:00;17.50;99.90
7934;DHT22;4012;48.896;9.192;2023-07-02T03:12:26;17.40;99.90
7934;DHT22;4012;48.896;9.192;2023-07-02T03:14:52;17.30;99.90
7934;DHT22;4012;48.896;9.192;2023-07-02T03:17:21;17.20;99.90
7934;DHT22;4012;48.896;9.192;2023-07-02T03:19:46;17.00;99.90
7934;DHT22;4012;48.896;9.192;2023-07-02T03:22:12;17.00;99.90
7934;DHT22;4012;48.896;9.192;2023-07-02T03:24:38;16.90;99.90
7934;DHT22;4012;48.896;9.192;2023-07-02T03:27:04;16.80;99.90
7934;DHT22;4012;48.896;9.192;2023-07-02T03:29:30;16.70;99.90
7934;DHT22;4012;48.896;9.192;2023-07-02T03:31:55;16.70;99.90
7934;DHT22;4012;48.896;9.192;2023-07-02T03:34:21;16.60;99.90
7934;DHT22;4012;48.896;9.192;2023-07-02T03:36:48;16.50;99.90
7934;DHT22;4012;48.896;9.192;2023-07-02T03:39:14;16.50;99.90
7934;DHT22;4012;48.896;9.192;2023-07-02T03:41:39;16.50;99.90
7934;DHT22;4012;48.896;9.192;2023-07-02T03:44:05;16.70;99.90
7934;DHT22;4012;48.896;9.192;2023-07-02T03:46:31;16.60;99.90
7934;DHT22;4012;48.896;9.192;2023-07-02T03:48:57;16.50;99.90
7934;DHT22;4012;48.896;9.192;2023-07-02T03:51:23;16.50;99.90
7934;DHT22;4012;48.896;9.192;2023-07-02T03:53:48;16.50;99.90
7934;DHT22;4012;48.896;9.192;2023-07-02T03:56:14;16.50;99.90
7934;DHT22;4012;48.896;9.192;2023-07-02T03:58:40;16.60;99.90
7934;DHT22;4012;48.896;9.192;2023-07-02T04:01:06;16.60;99.90
7934;DHT22;4012;48.896;9.192;2023-07-02T04:03:31;16.60;99.90
7934;DHT22;4012;48.896;9.192;2023-07-02T04:05:57;16.60;99.90
7934;DHT22;4012;48.896;9.192;2023-07-02T04:08:22;16.60;99.90
7934;DHT22;4012;48.896;9.192;2023-07-02T04:10:50;16.50;99.90
7934;DHT22;4012;48.896;9.192;2023-07-02T04:13:16;16.50;99.90
7934;DHT22;4012;48.896;9.192;2023-07-02T04:15:42;16.50;99.90
7934;DHT22;4012;48.896;9.192;2023-07-02T04:18:07;16.60;99.90
7934;DHT22;4012;48.896;9.192;2023-07-02T04:20:33;16.60;99.90
7934;DHT22;4012;48.896;9.192;2023-07-02T04:22:59;16.60;99.90
7934;DHT22;4012;48.896;9.192;2023-07-02T04:25:27;16.60;99.90
7934;DHT22;4012;48.896;9.192;2023-07-02T04:27:52;16.70;99.90
7934;DHT22;4012;48.896;9.192;2023-07-02T04:30:22;16.70;99.90
7934;DHT22;4012;48.896;9.192;2023-07-02T04:32:47;16.70;99.90
7934;DHT22;4012;48.896;9.192;2023-07-02T04:35:13;16.80;99.90
7934;DHT22;4012;48.896;9.192;2023-07-02T04:37:39;16.80;99.90
7934;DHT22;4012;48.896;9.192;2023-07-02T04:40:05;16.90;99.90
7934;DHT22;4012;48.896;9.192;2023-07-02T04:42:38;16.90;99.90
7934;DHT22;4012;48.896;9.192;2023-07-02T04:45:07;16.90;99.90
7934;DHT22;4012;48.896;9.192;2023-07-02T04:47:34;16.90;99.90
7934;DHT22;4012;48.896;9.192;2023-07-02T04:50:00;17.00;99.90
7934;DHT22;4012;48.896;9.192;2023-07-02T04:52:26;17.00;99.90
7934;DHT22;4012;48.896;9.192;2023-07-02T04:54:55;17.10;99.90
7934;DHT22;4012;48.896;9.192;2023-07-02T04:57:21;17.10;99.90
7934;DHT22;4012;48.896;9.192;2023-07-02T04:59:46;17.20;99.90
7934;DHT22;4012;48.896;9.192;2023-07-02T05:02:13;17.20;99.90
7934;DHT22;4012;48.896;9.192;2023-07-02T05:04:38;17.30;99.90
7934;DHT22;4012;48.896;9.192;2023-07-02T05:07:04;17.40;99.90
7934;DHT22;4012;48.896;9.192;2023-07-02T05:09:30;17.60;99.90
7934;DHT22;4012;48.896;9.192;2023-07-02T05:11:56;17.60;99.90
7934;DHT22;4012;48.896;9.192;2023-07-02T05:14:22;17.60;99.90
7934;DHT22;4012;48.896;9.192;2023-07-02T05:16:48;17.70;99.90
7934;DHT22;4012;48.896;9.192;2023-07-02T05:19:14;17.90;99.90
7934;DHT22;4012;48.896;9.192;2023-07-02T05:21:40;18.00;99.90
7934;DHT22;4012;48.896;9.192;2023-07-02T05:24:06;17.90;99.90
7934;DHT22;4012;48.896;9.192;2023-07-02T05:26:32;18.00;99.90
7934;DHT22;4012;48.896;9.192;2023-07-02T05:28:58;18.20;99.90
7934;DHT22;4012;48.896;9.192;2023-07-02T05:31:23;18.60;99.90
7934;DHT22;4012;48.896;9.192;2023-07-02T05:33:49;18.40;99.90
7934;DHT22;4012;48.896;9.192;2023-07-02T05:36:15;18.20;99.90
7934;DHT22;4012;48.896;9.192;2023-07-02T05:38:40;18.10;99.90
7934;DHT22;4012;48.896;9.192;2023-07-02T05:41:06;18.30;99.90
7934;DHT22;4012;48.896;9.192;2023-07-02T05:43:31;18.30;99.90
7934;DHT22;4012;48.896;9.192;2023-07-02T05:46:00;18.30;99.90
7934;DHT22;4012;48.896;9.192;2023-07-02T05:48:26;18.60;99.90
7934;DHT22;4012;48.896;9.192;2023-07-02T05:50:52;18.10;99.90
7934;DHT22;4012;48.896;9.192;2023-07-02T05:53:18;18.30;99.90
7934;DHT22;4012;48.896;9.192;2023-07-02T05:55:44;18.50;99.90
7934;DHT22;4012;48.896;9.192;2023-07-02T05:58:10;18.70;99.90
7934;DHT22;4012;48.896;9.192;2023-07-02T06:00:36;18.60;99.90
7934;DHT22;4012;48.896;9.192;2023-07-02T06:03:02;18.70;99.90
7934;DHT22;4012;48.896;9.192;2023-07-02T06:05:28;18.60;99.90
7934;DHT22;4012;48.896;9.192;2023-07-02T06:07:53;18.60;99.90
7934;DHT22;4012;48.896;9.192;2023-07-02T06:10:19;18.60;99.90
7934;DHT22;4012;48.896;9.192;2023-07-02T06:12:44;18.70;99.90
7934;DHT22;4012;48.896;9.192;2023-07-02T06:15:10;18.90;99.90
7934;DHT22;4012;48.896;9.192;2023-07-02T06:17:36;19.20;99.90
7934;DHT22;4012;48.896;9.192;2023-07-02T06:20:05;19.30;99.90
7934;DHT22;4012;48.896;9.192;2023-07-02T06:22:31;19.40;99.90
7934;DHT22;4012;48.896;9.192;2023-07-02T06:24:57;19.70;99.90
7934;DHT22;4012;48.896;9.192;2023-07-02T06:27:23;20.20;99.90
7934;DHT22;4012;48.896;9.192;2023-07-02T06:29:48;21.70;99.90
7934;DHT22;4012;48.896;9.192;2023-07-02T06:32:15;21.80;99.90
7934;DHT22;4012;48.896;9.192;2023-07-02T06:34:41;23.60;99.90
7934;DHT22;4012;48.896;9.192;2023-07-02T06:37:07;22.60;99.90
7934;DHT22;4012;48.896;9.192;2023-07-02T06:39:32;22.30;99.90
7934;DHT22;4012;48.896;9.192;2023-07-02T06:41:58;21.80;99.90
7934;DHT22;4012;48.896;9.192;2023-07-02T06:44:23;21.70;99.90
7934;DHT22;4012;48.896;9.192;2023-07-02T06:46:49;20.60;99.90
7934;DHT22;4012;48.896;9.192;2023-07-02T06:49:14;20.80;99.90
7934;DHT22;4012;48.896;9.192;2023-07-02T06:51:40;21.80;99.90
7934;DHT22;4012;48.896;9.192;2023-07-02T06:54:06;22.90;99.90
7934;DHT22;4012;48.896;9.192;2023-07-02T06:56:32;23.70;99.90
7934;DHT22;4012;48.896;9.192;2023-07-02T06:58:59;24.30;99.90
7934;DHT22;4012;48.896;9.192;2023-07-02T07:01:25;25.20;99.90
7934;DHT22;4012;48.896;9.192;2023-07-02T07:03:51;25.10;99.90
7934;DHT22;4012;48.896;9.192;2023-07-02T07:06:17;26.00;99.90
7934;DHT22;4012;48.896;9.192;2023-07-02T07:08:42;27.00;99.90
7934;DHT22;4012;48.896;9.192;2023-07-02T07:11:08;27.40;99.90
7934;DHT22;4012;48.896;9.192;2023-07-02T07:13:34;27.70;99.90
7934;DHT22;4012;48.896;9.192;2023-07-02T07:15:59;29.00;99.90
7934;DHT22;4012;48.896;9.192;2023-07-02T07:18:25;27.60;99.90
7934;DHT22;4012;48.896;9.192;2023-07-02T07:20:51;26.80;99.90
7934;DHT22;4012;48.896;9.192;2023-07-02T07:23:18;27.40;99.90
7934;DHT22;4012;48.896;9.192;2023-07-02T07:25:44;26.70;99.90
7934;DHT22;4012;48.896;9.192;2023-07-02T07:28:09;27.10;99.90
7934;DHT22;4012;48.896;9.192;2023-07-02T07:30:42;28.50;99.90
7934;DHT22;4012;48.896;9.192;2023-07-02T07:33:07;29.20;99.90
7934;DHT22;4012;48.896;9.192;2023-07-02T07:35:33;28.50;99.90
7934;DHT22;4012;48.896;9.192;2023-07-02T07:37:59;27.60;99.90
7934;DHT22;4012;48.896;9.192;2023-07-02T07:40:24;28.10;99.90
7934;DHT22;4012;48.896;9.192;2023-07-02T07:42:50;26.70;99.90
7934;DHT22;4012;48.896;9.192;2023-07-02T07:45:15;27.00;99.90
7934;DHT22;4012;48.896;9.192;2023-07-02T07:47:41;28.20;99.90
7934;DHT22;4012;48.896;9.192;2023-07-02T07:50:08;27.40;99.90
7934;DHT22;4012;48.896;9.192;2023-07-02T07:52:38;29.20;99.90
7934;DHT22;4012;48.896;9.192;2023-07-02T07:55:05;29.10;99.90
7934;DHT22;4012;48.896;9.192;2023-07-02T07:57:31;26.90;99.90
7934;DHT22;4012;48.896;9.192;2023-07-02T07:59:56;27.90;99.90
7934;DHT22;4012;48.896;9.192;2023-07-02T08:02:22;28.00;99.90
7934;DHT22;4012;48.896;9.192;2023-07-02T08:04:48;27.60;99.90
7934;DHT22;4012;48.896;9.192;2023-07-02T08:07:14;26.70;99.90
7934;DHT22;4012;48.896;9.192;2023-07-02T08:09:40;26.80;99.90
7934;DHT22;4012;48.896;9.192;2023-07-02T08:12:05;28.30;99.90
7934;DHT22;4012;48.896;9.192;2023-07-02T08:14:31;29.30;99.90
7934;DHT22;4012;48.896;9.192;2023-07-02T08:16:57;28.70;99.90
7934;DHT22;4012;48.896;9.192;2023-07-02T08:19:22;29.50;99.90
7934;DHT22;4012;48.896;9.192;2023-07-02T08:21:48;29.30;99.90
7934;DHT22;4012;48.896;9.192;2023-07-02T08:24:13;29.40;99.90
7934;DHT22;4012;48.896;9.192;2023-07-02T08:26:39;29.00;99.90
7934;DHT22;4012;48.896;9.192;2023-07-02T08:29:04;29.00;99.90
7934;DHT22;4012;48.896;9.192;2023-07-02T08:31:30;29.30;99.90
7934;DHT22;4012;48.896;9.192;2023-07-02T08:34:00;28.20;99.90
7934;DHT22;4012;48.896;9.192;2023-07-02T08:36:25;28.80;99.90
7934;DHT22;4012;48.896;9.192;2023-07-02T08:38:51;29.10;99.90
7934;DHT22;4012;48.896;9.192;2023-07-02T08:41:16;28.10;99.90
7934;DHT22;4012;48.896;9.192;2023-07-02T08:43:43;27.90;99.90
7934;DHT22;4012;48.896;9.192;2023-07-02T08:46:09;29.40;99.90
7934;DHT22;4012;48.896;9.192;2023-07-02T08:48:35;28.60;99.90
7934;DHT22;4012;48.896;9.192;2023-07-02T08:51:02;29.00;99.90
7934;DHT22;4012;48.896;9.192;2023-07-02T08:53:28;28.60;99.90
7934;DHT22;4012;48.896;9.192;2023-07-02T08:55:59;28.30;99.90
7934;DHT22;4012;48.896;9.192;2023-07-02T08:58:25;27.80;99.90
7934;DHT22;4012;48.896;9.192;2023-07-02T09:01:07;27.90;99.90
7934;DHT22;4012;48.896;9.192;2023-07-02T09:03:34;27.70;99.90
7934;DHT22;4012;48.896;9.192;2023-07-02T09:06:00;29.20;99.90
7934;DHT22;4012;48.896;9.192;2023-07-02T09:08:26;30.40;99.90
7934;DHT22;4012;48.896;9.192;2023-07-02T09:11:12;27.40;99.90
7934;DHT22;4012;48.896;9.192;2023-07-02T09:19:06;26.60;99.90
7934;DHT22;4012;48.896;9.192;2023-07-02T09:21:43;27.40;99.90
7934;DHT22;4012;48.896;9.192;2023-07-02T09:26:46;27.40;99.90
7934;DHT22;4012;48.896;9.192;2023-07-02T09:29:13;26.70;99.90
7934;DHT22;4012;48.896;9.192;2023-07-02T09:31:48;26.10;99.90
7934;DHT22;4012;48.896;9.192;2023-07-02T09:34:14;25.30;99.90
7934;DHT22;4012;48.896;9.192;2023-07-02T09:36:39;24.20;99.90
7934;DHT22;4012;48.896;9.192;2023-07-02T09:39:12;26.30;99.90
7934;DHT22;4012;48.896;9.192;2023-07-02T09:41:41;28.00;99.90
7934;DHT22;4012;48.896;9.192;2023-07-02T09:44:07;28.60;99.90
7934;DHT22;4012;48.896;9.192;2023-07-02T09:46:34;28.80;99.90
7934;DHT22;4012;48.896;9.192;2023-07-02T09:49:01;27.20;99.90
7934;DHT22;4012;48.896;9.192;2023-07-02T09:51:28;26.00;99.90
7934;DHT22;4012;48.896;9.192;2023-07-02T09:53:54;25.10;99.90
7934;DHT22;4012;48.896;9.192;2023-07-02T09:56:20;24.60;99.90
7934;DHT22;4012;48.896;9.192;2023-07-02T09:58:46;24.80;99.90
7934;DHT22;4012;48.896;9.192;2023-07-02T10:01:12;26.50;99.90
7934;DHT22;4012;48.896;9.192;2023-07-02T10:03:38;27.50;99.90
7934;DHT22;4012;48.896;9.192;2023-07-02T10:06:07;27.70;99.90
7934;DHT22;4012;48.896;9.192;2023-07-02T10:08:33;26.60;99.90
7934;DHT22;4012;48.896;9.192;2023-07-02T10:11:12;25.70;99.90
7934;DHT22;4012;48.896;9.192;2023-07-02T10:13:40;26.90;99.90
7934;DHT22;4012;48.896;9.192;2023-07-02T10:16:07;27.20;99.90
7934;DHT22;4012;48.896;9.192;2023-07-02T10:18:32;27.90;99.90
7934;DHT22;4012;48.896;9.192;2023-07-02T10:20:58;28.00;99.90
7934;DHT22;4012;48.896;9.192;2023-07-02T10:25:57;27.40;99.90
7934;DHT22;4012;48.896;9.192;2023-07-02T10:28:22;28.50;99.90
7934;DHT22;4012;48.896;9.192;2023-07-02T10:30:52;28.10;99.90
7934;DHT22;4012;48.896;9.192;2023-07-02T10:33:19;28.40;99.90
7934;DHT22;4012;48.896;9.192;2023-07-02T10:35:47;27.00;99.90
7934;DHT22;4012;48.896;9.192;2023-07-02T10:38:19;25.70;99.90
7934;DHT22;4012;48.896;9.192;2023-07-02T10:40:45;27.10;99.90
7934;DHT22;4012;48.896;9.192;2023-07-02T10:43:11;27.70;99.90
7934;DHT22;4012;48.896;9.192;2023-07-02T10:45:36;27.30;99.90
7934;DHT22;4012;48.896;9.192;2023-07-02T10:48:11;26.90;99.90
7934;DHT22;4012;48.896;9.192;2023-07-02T10:50:37;27.60;99.90
7934;DHT22;4012;48.896;9.192;2023-07-02T10:53:03;26.90;99.90
7934;DHT22;4012;48.896;9.192;2023-07-02T10:55:28;26.20;99.90
7934;DHT22;4012;48.896;9.192;2023-07-02T10:58:05;25.60;99.90
7934;DHT22;4012;48.896;9.192;2023-07-02T11:00:31;25.80;99.90
7934;DHT22;4012;48.896;9.192;2023-07-02T11:02:58;25.70;99.90
7934;DHT22;4012;48.896;9.192;2023-07-02T11:05:23;26.00;99.90
7934;DHT22;4012;48.896;9.192;2023-07-02T11:07:49;26.40;99.90
7934;DHT22;4012;48.896;9.192;2023-07-02T11:10:22;25.90;99.90
7934;DHT22;4012;48.896;9.192;2023-07-02T11:12:49;25.60;99.90
7934;DHT22;4012;48.896;9.192;2023-07-02T11:15:15;25.90;99.90
7934;DHT22;4012;48.896;9.192;2023-07-02T11:17:46;26.30;99.90
7934;DHT22;4012;48.896;9.192;2023-07-02T11:20:12;25.30;99.90
7934;DHT22;4012;48.896;9.192;2023-07-02T11:22:39;24.60;99.90
7934;DHT22;4012;48.896;9.192;2023-07-02T11:25:09;25.00;99.90
7934;DHT22;4012;48.896;9.192;2023-07-02T11:27:35;25.80;99.90
7934;DHT22;4012;48.896;9.192;2023-07-02T11:30:01;25.50;99.90
7934;DHT22;4012;48.896;9.192;2023-07-02T11:32:26;25.20;99.90
7934;DHT22;4012;48.896;9.192;2023-07-02T11:34:55;25.40;99.90
7934;DHT22;4012;48.896;9.192;2023-07-02T11:37:21;25.30;99.90
7934;DHT22;4012;48.896;9.192;2023-07-02T11:39:48;25.90;99.90
7934;DHT22;4012;48.896;9.192;2023-07-02T11:42:14;25.80;99.90
7934;DHT22;4012;48.896;9.192;2023-07-02T11:44:40;26.20;99.90
7934;DHT22;4012;48.896;9.192;2023-07-02T11:47:06;25.90;99.90
7934;DHT22;4012;48.896;9.192;2023-07-02T11:49:32;25.50;99.90
7934;DHT22;4012;48.896;9.192;2023-07-02T11:51:57;24.90;99.90
7934;DHT22;4012;48.896;9.192;2023-07-02T11:54:23;24.50;99.90
7934;DHT22;4012;48.896;9.192;2023-07-02T11:56:49;25.20;99.90
7934;DHT22;4012;48.896;9.192;2023-07-02T11:59:14;25.40;99.90
7934;DHT22;4012;48.896;9.192;2023-07-02T12:01:40;26.30;99.90
7934;DHT22;4012;48.896;9.192;2023-07-02T12:04:05;26.60;99.90
7934;DHT22;4012;48.896;9.192;2023-07-02T12:06:33;26.20;99.90
7934;DHT22;4012;48.896;9.192;2023-07-02T12:08:59;25.70;99.90
7934;DHT22;4012;48.896;9.192;2023-07-02T12:11:24;25.60;99.90
7934;DHT22;4012;48.896;9.192;2023-07-02T12:13:50;25.40;99.90
7934;DHT22;4012;48.896;9.192;2023-07-02T12:16:15;25.40;99.90
7934;DHT22;4012;48.896;9.192;2023-07-02T12:18:42;25.90;99.90
7934;DHT22;4012;48.896;9.192;2023-07-02T12:21:08;25.50;99.90
7934;DHT22;4012;48.896;9.192;2023-07-02T12:23:34;25.50;99.90
7934;DHT22;4012;48.896;9.192;2023-07-02T12:25:59;25.50;99.90
7934;DHT22;4012;48.896;9.192;2023-07-02T12:28:25;25.70;99.90
7934;DHT22;4012;48.896;9.192;2023-07-02T12:30:50;25.50;99.90
7934;DHT22;4012;48.896;9.192;2023-07-02T12:33:16;26.10;99.90
7934;DHT22;4012;48.896;9.192;2023-07-02T12:35:41;26.20;99.90
7934;DHT22;4012;48.896;9.192;2023-07-02T12:38:07;25.70;99.90
7934;DHT22;4012;48.896;9.192;2023-07-02T12:40:34;26.00;99.90
7934;DHT22;4012;48.896;9.192;2023-07-02T12:42:59;26.00;99.90
7934;DHT22;4012;48.896;9.192;2023-07-02T12:45:25;25.80;99.90
7934;DHT22;4012;48.896;9.192;2023-07-02T12:47:51;25.40;99.90
7934;DHT22;4012;48.896;9.192;2023-07-02T12:50:16;25.50;99.90
7934;DHT22;4012;48.896;9.192;2023-07-02T12:52:42;25.70;99.90
7934;DHT22;4012;48.896;9.192;2023-07-02T12:55:08;25.50;99.90
7934;DHT22;4012;48.896;9.192;2023-07-02T12:57:34;25.90;99.90
7934;DHT22;4012;48.896;9.192;2023-07-02T13:00:00;25.70;99.90
7934;DHT22;4012;48.896;9.192;2023-07-02T13:02:25;25.50;99.90
7934;DHT22;4012;48.896;9.192;2023-07-02T13:04:51;25.80;99.90
7934;DHT22;4012;48.896;9.192;2023-07-02T13:07:17;26.20;99.90
7934;DHT22;4012;48.896;9.192;2023-07-02T13:09:43;26.00;99.90
7934;DHT22;4012;48.896;9.192;2023-07-02T13:12:10;25.50;99.90
7934;DHT22;4012;48.896;9.192;2023-07-02T13:14:37;25.60;99.90
7934;DHT22;4012;48.896;9.192;2023-07-02T13:17:03;26.30;99.90
7934;DHT22;4012;48.896;9.192;2023-07-02T13:19:30;26.30;99.90
7934;DHT22;4012;48.896;9.192;2023-07-02T13:21:56;26.10;99.90
7934;DHT22;4012;48.896;9.192;2023-07-02T13:24:22;25.90;99.90
7934;DHT22;4012;48.896;9.192;2023-07-02T13:26:47;26.20;99.90
7934;DHT22;4012;48.896;9.192;2023-07-02T13:29:14;26.60;99.90
7934;DHT22;4012;48.896;9.192;2023-07-02T13:31:39;26.40;99.90
7934;DHT22;4012;48.896;9.192;2023-07-02T13:34:05;26.20;99.90
7934;DHT22;4012;48.896;9.192;2023-07-02T13:36:30;25.70;99.90
7934;DHT22;4012;48.896;9.192;2023-07-02T13:38:56;25.80;99.90
7934;DHT22;4012;48.896;9.192;2023-07-02T13:41:22;25.60;99.90
7934;DHT22;4012;48.896;9.192;2023-07-02T13:43:47;25.40;99.90
7934;DHT22;4012;48.896;9.192;2023-07-02T13:46:13;25.90;99.90
7934;DHT22;4012;48.896;9.192;2023-07-02T13:48:39;26.10;99.90
7934;DHT22;4012;48.896;9.192;2023-07-02T13:51:05;26.40;99.90
7934;DHT22;4012;48.896;9.192;2023-07-02T13:53:30;26.10;99.90
7934;DHT22;4012;48.896;9.192;2023-07-02T13:55:58;26.50;99.90
7934;DHT22;4012;48.896;9.192;2023-07-02T13:58:24;26.50;99.90
7934;DHT22;4012;48.896;9.192;2023-07-02T14:00:49;26.50;99.90
7934;DHT22;4012;48.896;9.192;2023-07-02T14:03:15;26.20;99.90
7934;DHT22;4012;48.896;9.192;2023-07-02T14:05:41;26.50;99.90
7934;DHT22;4012;48.896;9.192;2023-07-02T14:08:09;26.30;99.90
7934;DHT22;4012;48.896;9.192;2023-07-02T14:10:35;26.30;99.90
7934;DHT22;4012;48.896;9.192;2023-07-02T14:13:01;26.50;99.90
7934;DHT22;4012;48.896;9.192;2023-07-02T14:15:26;26.40;99.90
7934;DHT22;4012;48.896;9.192;2023-07-02T14:17:53;26.40;99.90
7934;DHT22;4012;48.896;9.192;2023-07-02T14:20:20;26.80;99.90
7934;DHT22;4012;48.896;9.192;2023-07-02T14:22:45;26.80;99.90
7934;DHT22;4012;48.896;9.192;2023-07-02T14:25:11;26.40;99.90
7934;DHT22;4012;48.896;9.192;2023-07-02T14:27:37;26.70;99.90
7934;DHT22;4012;48.896;9.192;2023-07-02T14:30:05;25.90;99.90
7934;DHT22;4012;48.896;9.192;2023-07-02T14:32:34;26.20;99.90
7934;DHT22;4012;48.896;9.192;2023-07-02T14:35:02;26.30;99.90
7934;DHT22;4012;48.896;9.192;2023-07-02T14:37:27;25.80;99.90
7934;DHT22;4012;48.896;9.192;2023-07-02T14:39:53;26.10;99.90
7934;DHT22;4012;48.896;9.192;2023-07-02T14:42:19;25.90;99.90
7934;DHT22;4012;48.896;9.192;2023-07-02T14:44:44;26.00;99.90
7934;DHT22;4012;48.896;9.192;2023-07-02T14:47:10;26.10;99.90
7934;DHT22;4012;48.896;9.192;2023-07-02T14:49:36;26.30;99.90
7934;DHT22;4012;48.896;9.192;2023-07-02T14:52:02;25.70;99.90
7934;DHT22;4012;48.896;9.192;2023-07-02T14:54:28;26.20;99.90
7934;DHT22;4012;48.896;9.192;2023-07-02T14:56:54;26.30;99.90
7934;DHT22;4012;48.896;9.192;2023-07-02T14:59:19;26.50;99.90
7934;DHT22;4012;48.896;9.192;2023-07-02T15:01:45;26.90;99.90
7934;DHT22;4012;48.896;9.192;2023-07-02T15:04:10;26.60;99.90
7934;DHT22;4012;48.896;9.192;2023-07-02T15:06:36;26.00;99.90
7934;DHT22;4012;48.896;9.192;2023-07-02T15:09:02;25.90;99.90
7934;DHT22;4012;48.896;9.192;2023-07-02T15:11:28;26.00;99.90
7934;DHT22;4012;48.896;9.192;2023-07-02T15:13:53;25.70;99.90
7934;DHT22;4012;48.896;9.192;2023-07-02T15:16:19;25.40;99.90
7934;DHT22;4012;48.896;9.192;2023-07-02T15:18:46;25.50;99.90
7934;DHT22;4012;48.896;9.192;2023-07-02T15:21:11;25.60;99.90
7934;DHT22;4012;48.896;9.192;2023-07-02T15:23:37;25.80;99.90
7934;DHT22;4012;48.896;9.192;2023-07-02T15:26:04;25.60;99.90
7934;DHT22;4012;48.896;9.192;2023-07-02T15:28:30;25.90;99.90
7934;DHT22;4012;48.896;9.192;2023-07-02T15:30:58;25.90;99.90
7934;DHT22;4012;48.896;9.192;2023-07-02T15:33:24;26.30;99.90
7934;DHT22;4012;48.896;9.192;2023-07-02T15:35:50;26.20;99.90
7934;DHT22;4012;48.896;9.192;2023-07-02T15:38:16;25.90;99.90
7934;DHT22;4012;48.896;9.192;2023-07-02T15:40:44;25.90;99.90
7934;DHT22;4012;48.896;9.192;2023-07-02T15:43:09;26.30;99.90
7934;DHT22;4012;48.896;9.192;2023-07-02T15:45:35;26.30;99.90
7934;DHT22;4012;48.896;9.192;2023-07-02T15:48:01;26.20;99.90
7934;DHT22;4012;48.896;9.192;2023-07-02T15:50:27;26.30;99.90
7934;DHT22;4012;48.896;9.192;2023-07-02T15:52:53;26.10;99.90
7934;DHT22;4012;48.896;9.192;2023-07-02T15:55:19;26.10;99.90
7934;DHT22;4012;48.896;9.192;2023-07-02T15:57:45;25.90;99.90
7934;DHT22;4012;48.896;9.192;2023-07-02T16:00:11;25.50;99.90
7934;DHT22;4012;48.896;9.192;2023-07-02T16:02:39;25.50;99.90
7934;DHT22;4012;48.896;9.192;2023-07-02T16:05:05;25.30;99.90
7934;DHT22;4012;48.896;9.192;2023-07-02T16:07:30;25.30;99.90